Terminal Aerodrome Forecast
Issued by NWS Cleveland, OH

Home | Current Version | Previous Version | Text Only | Print | Product List | Glossary On
Versions: 1 2 3 4 5 6 7 8 9 10 11 12 13 14 15 16
000
FTUS41 KCLE 030500
TAFTOL
TAF
KTOL 030537Z 0306/0406 VRB03KT P6SM SCT100 BKN250
     FM031300 23008KT P6SM SCT100 BKN250
     FM031700 23010G18KT P6SM SCT060 BKN250
     FM040000 20005KT P6SM FEW100 SCT250=

USA.gov is the U.S. government's official web portal to all federal, state and local government web resources and services.